Montpelier Junction, Vermont
Current Conditions -  °F | °C
As of 1:07 AM on Wednesday 22 Oct 2014 (Local Time) from KMPV Reporting Station
Overcast Overcast  
Wind Chill: 43°   Ceiling: 1400
Heat Index: 45°   Visibility: 8mi
Dew Point: 45°   Wind: 5mph
Humidity: 100%   Direction: 360°N
Pressure: 30.11"   Gusts: NA
Location:  44.2861°N, 72.6004°W
Report Text: KMPV 220507Z AUTO 36004KT 8SM SCT007 OVC014 07/07 A3011 RMK AO2 T00720072
Loading
Personal Weather Stations






























Interactive Weather Map
Tropical Storm Tracking
New forecast layout! Learn more

10-Day Weather Forecast

Advertisements
Track Severe Weather on mobile